Time;durP1;ratioP1;P1;durP2;ratioP2;P2;SDS_P1;SDS_P2;PMS_P1;PMS_P2;Temp;Humidity;BMP_temperature;BMP_pressure;BME280_temperature;BME280_humidity;BME280_pressure;Samples;Min_cycle;Max_cycle;Signal;HPM_P1;HPM_P2
2023/08/26 00:11:49;;;;;;;7.47;4.13;;;;;;;21.67;68.11;99540.66;30612244;28;97578;-75
2023/08/26 00:26:49;;;;;;;12.80;5.13;;;;;;;21.45;68.48;99555.09;30609205;28;96794;-76
2023/08/26 00:41:51;;;;;;;4.60;3.10;;;;;;;21.26;68.50;99551.94;30608074;28;97188;-76
2023/08/26 00:56:51;;;;;;;7.03;4.20;;;;;;;21.18;68.76;99552.41;30607001;28;105938;-76
2023/08/26 01:12:06;;;;;;;10.07;4.23;;;;;;;21.11;69.00;99561.53;30605593;28;97089;-76
2023/08/26 01:27:07;;;;;;;9.70;4.50;;;;;;;20.93;69.12;99560.00;30603392;28;97186;-77
2023/08/26 01:42:12;;;;;;;8.45;4.82;;;;;;;20.81;69.70;99574.75;30602915;28;97612;-77
2023/08/26 01:57:12;;;;;;;6.57;4.27;;;;;;;20.73;69.77;99567.91;30601203;28;96781;-76
2023/08/26 02:12:13;;;;;;;6.37;3.57;;;;;;;20.66;69.82;99559.13;30600071;28;109726;-76
2023/08/26 02:27:13;;;;;;;8.97;4.13;;;;;;;20.38;69.82;99569.03;30598078;28;108973;-78
2023/08/26 02:42:14;;;;;;;9.13;4.73;;;;;;;20.16;70.41;99575.25;30595866;28;97400;-77
2023/08/26 02:57:14;;;;;;;7.40;4.80;;;;;;;19.81;70.65;99581.75;30596213;28;97045;-73
2023/08/26 03:12:15;;;;;;;7.93;5.20;;;;;;;19.74;71.89;99581.09;30593477;28;97497;-75
2023/08/26 03:27:15;;;;;;;9.40;5.40;;;;;;;19.67;72.32;99586.66;30592826;28;96854;-76
2023/08/26 03:42:15;;;;;;;6.93;5.27;;;;;;;19.27;72.84;99577.59;30591695;28;97225;-76
2023/08/26 03:57:16;;;;;;;8.32;4.60;;;;;;;19.15;73.59;99579.53;30602139;28;98157;-67
2023/08/26 04:12:16;;;;;;;5.70;3.95;;;;;;;19.18;73.92;99594.44;30610381;28;96845;-76
2023/08/26 04:27:16;;;;;;;9.25;4.10;;;;;;;19.23;73.80;99600.75;30609988;28;97221;-75
2023/08/26 04:42:18;;;;;;;5.20;3.28;;;;;;;19.66;73.33;99608.50;30607196;28;108290;-77
2023/08/26 04:57:18;;;;;;;5.67;3.00;;;;;;;20.35;72.29;99608.22;30604467;28;96644;-75
2023/08/26 05:12:21;;;;;;;4.43;2.90;;;;;;;21.28;70.61;99607.50;30603819;28;97252;-76
2023/08/26 05:27:22;;;;;;;5.53;2.70;;;;;;;21.98;68.89;99621.13;30603817;28;97334;-75
2023/08/26 05:42:23;;;;;;;5.90;2.80;;;;;;;22.99;66.75;99615.75;30602782;28;97464;-80
2023/08/26 05:57:23;;;;;;;6.30;3.45;;;;;;;24.17;64.66;99645.00;30600842;28;110551;-79
2023/08/26 06:12:23;;;;;;;4.70;2.63;;;;;;;24.43;62.04;99658.56;30597362;28;97177;-78
2023/08/26 06:27:23;;;;;;;5.85;2.70;;;;;;;24.38;62.56;99685.78;30595284;28;96775;-80
2023/08/26 06:42:24;;;;;;;5.05;2.13;;;;;;;24.69;61.41;99695.81;30594572;28;97060;-77
2023/08/26 06:57:24;;;;;;;7.18;2.38;;;;;;;24.76;60.56;99685.47;30591993;28;97515;-74
2023/08/26 07:12:24;;;;;;;5.07;2.40;;;;;;;25.35;59.45;99683.88;30592871;28;107097;-68
2023/08/26 07:27:25;;;;;;;5.03;2.40;;;;;;;25.61;58.34;99686.47;30598220;28;105858;-77
2023/08/26 07:42:25;;;;;;;5.07;2.60;;;;;;;26.09;57.60;99705.78;30613588;28;97382;-75
2023/08/26 07:57:25;;;;;;;6.90;2.50;;;;;;;26.87;55.21;99727.72;30613201;28;96997;-76
2023/08/26 08:12:26;;;;;;;3.90;2.45;;;;;;;27.62;53.36;99741.88;30609580;28;97484;-78
2023/08/26 08:27:26;;;;;;;3.53;2.40;;;;;;;28.45;51.52;99752.38;30609111;28;97283;-76
2023/08/26 08:42:31;;;;;;;4.28;2.33;;;;;;;28.53;49.25;99765.38;30605528;28;112774;-78
2023/08/26 08:57:34;;;;;;;6.77;2.90;;;;;;;29.12;48.41;99751.16;30606705;28;97759;-78
2023/08/26 09:12:35;;;;;;;7.10;2.80;;;;;;;32.90;43.10;99724.72;30604029;28;97139;-76
2023/08/26 09:27:42;;;;;;;6.43;4.43;;;;;;;37.40;35.72;99713.16;30602851;28;96952;-76
2023/08/26 09:42:43;;;;;;;7.07;3.57;;;;;;;37.55;32.61;99682.88;30601609;28;97312;-75
2023/08/26 09:57:43;;;;;;;5.13;4.10;;;;;;;34.42;35.16;99664.91;30599853;28;97278;-75
2023/08/26 10:12:48;;;;;;;4.78;3.35;;;;;;;35.97;34.03;99644.66;30600127;28;97445;-70
2023/08/26 10:27:50;;;;;;;4.33;2.80;;;;;;;36.88;32.63;99653.25;30598539;28;97361;-68
2023/08/26 10:43:05;;;;;;;6.80;3.53;;;;;;;37.90;29.32;99648.66;30596116;28;97443;-72
2023/08/26 10:58:16;;;;;;;9.40;3.47;;;;;;;34.78;33.43;99662.50;30595622;28;96840;-69
2023/08/26 11:13:17;;;;;;;8.43;3.60;;;;;;;31.61;37.19;99695.97;30593466;28;97518;-69
2023/08/26 11:28:17;;;;;;;8.20;4.70;;;;;;;29.68;40.65;99716.25;30593752;28;97197;-69
2023/08/26 11:43:17;;;;;;;11.80;8.70;;;;;;;28.53;43.06;99714.13;30592588;28;97324;-70
2023/08/26 11:58:18;;;;;;;8.00;4.70;;;;;;;28.55;44.21;99719.31;30591603;28;96679;-74
2023/08/26 12:13:19;;;;;;;5.07;3.65;;;;;;;31.22;41.55;99717.78;30594957;28;97372;-72
2023/08/26 12:28:26;;;;;;;3.87;2.50;;;;;;;32.95;38.00;99716.28;30609312;28;97208;-74
2023/08/26 12:43:26;;;;;;;5.13;2.70;;;;;;;32.04;38.02;99684.13;30606930;28;98565;-76
2023/08/26 12:58:27;;;;;;;3.83;1.90;;;;;;;32.51;36.76;99696.34;30606061;28;114170;-75
2023/08/26 13:13:27;;;;;;;3.33;1.70;;;;;;;32.60;35.46;99699.06;30605957;28;97325;-78
2023/08/26 13:28:28;;;;;;;3.47;1.83;;;;;;;32.87;34.95;99701.38;30604616;28;97090;-76
2023/08/26 13:43:28;;;;;;;3.60;1.40;;;;;;;33.00;33.20;99682.19;30603760;28;96763;-77
2023/08/26 13:58:29;;;;;;;2.85;1.50;;;;;;;33.17;33.22;99670.22;30601144;28;97678;-75
2023/08/26 14:13:29;;;;;;;2.80;1.23;;;;;;;32.31;34.04;99646.28;30599669;28;97233;-78
2023/08/26 14:28:29;;;;;;;2.65;1.17;;;;;;;32.01;34.14;99635.19;30598246;28;97196;-75
2023/08/26 14:43:30;;;;;;;1.88;1.23;;;;;;;30.72;36.07;99639.16;30596687;28;96941;-77
2023/08/26 14:58:30;;;;;;;2.40;1.45;;;;;;;30.39;36.60;99658.72;30595716;28;97431;-78
2023/08/26 15:13:31;;;;;;;2.60;1.83;;;;;;;29.79;38.13;99664.66;30593317;28;97218;-75
2023/08/26 15:28:31;;;;;;;2.45;1.58;;;;;;;29.41;39.49;99649.34;30593375;28;97324;-77
2023/08/26 15:43:32;;;;;;;3.60;1.45;;;;;;;28.95;39.96;99644.84;30591873;28;97187;-69
2023/08/26 15:58:33;;;;;;;4.60;1.70;;;;;;;28.70;40.56;99653.31;30610245;28;96721;-78
2023/08/26 16:13:33;;;;;;;5.80;2.10;;;;;;;28.24;41.84;99658.78;30610650;28;96659;-78
2023/08/26 16:28:34;;;;;;;3.28;1.88;;;;;;;27.91;43.07;99647.84;30609745;28;97093;-77
2023/08/26 16:43:34;;;;;;;3.33;2.10;;;;;;;27.61;43.41;99641.75;30607356;28;97746;-69
2023/08/26 16:58:35;;;;;;;4.45;1.73;;;;;;;27.23;44.52;99669.06;30605132;28;96744;-78
2023/08/26 17:13:36;;;;;;;5.72;2.75;;;;;;;27.00;45.66;99679.75;30604980;28;97466;-74
2023/08/26 17:28:36;;;;;;;5.10;2.33;;;;;;;26.77;46.71;99662.28;30603792;28;96706;-77
2023/08/26 17:43:36;;;;;;;4.72;2.40;;;;;;;26.36;47.72;99666.22;30602222;28;97559;-74
2023/08/26 17:58:37;;;;;;;6.20;3.17;;;;;;;25.84;49.27;99657.66;30602050;28;96980;-76
2023/08/26 18:13:37;;;;;;;3.45;2.30;;;;;;;25.49;50.45;99684.06;30599790;28;97366;-71
2023/08/26 18:28:38;;;;;;;4.00;2.33;;;;;;;25.17;51.05;99679.88;30598775;28;96994;-73
2023/08/26 18:43:38;;;;;;;6.40;2.88;;;;;;;24.88;52.41;99663.34;30596922;28;97420;-76
2023/08/26 18:58:38;;;;;;;6.05;3.42;;;;;;;24.61;53.32;99665.34;30595374;28;97489;-72
2023/08/26 19:13:39;;;;;;;6.30;4.18;;;;;;;24.38;54.50;99669.47;30594602;28;107959;-72
2023/08/26 19:28:39;;;;;;;5.80;3.42;;;;;;;24.15;55.05;99674.41;30603751;28;97212;-68
2023/08/26 19:43:39;;;;;;;7.57;4.25;;;;;;;23.95;55.96;99658.09;30612914;28;104322;-73
2023/08/26 19:58:40;;;;;;;6.93;3.70;;;;;;;23.86;56.97;99649.59;30613574;28;96694;-73
2023/08/26 20:13:40;;;;;;;9.05;5.15;;;;;;;23.78;57.19;99621.06;30609915;28;100437;-72
2023/08/26 20:28:40;;;;;;;9.65;5.32;;;;;;;23.62;57.97;99655.59;30605624;28;97271;-69
2023/08/26 20:43:42;;;;;;;8.65;4.82;;;;;;;23.58;58.22;99675.41;30606143;28;97146;-76
2023/08/26 20:58:42;;;;;;;7.93;4.50;;;;;;;23.51;58.81;99685.72;30606152;28;96794;-78
2023/08/26 21:13:43;;;;;;;8.93;4.82;;;;;;;23.42;61.07;99650.13;30605353;28;97299;-74
2023/08/26 21:28:43;;;;;;;7.78;4.75;;;;;;;23.19;62.11;99676.66;30605024;28;108778;-77
2023/08/26 21:43:43;;;;;;;8.88;5.78;;;;;;;23.16;62.96;99688.09;30602642;28;108469;-78
2023/08/26 21:58:44;;;;;;;7.43;5.50;;;;;;;22.99;63.77;99690.94;30603929;28;97310;-79
2023/08/26 22:13:44;;;;;;;12.35;6.03;;;;;;;22.79;66.06;99667.25;30601758;28;97051;-76
2023/08/26 22:28:45;;;;;;;10.57;5.55;;;;;;;22.63;67.88;99652.78;30598648;28;114647;-79
2023/08/26 22:43:47;;;;;;;6.77;4.80;;;;;;;22.43;68.59;99667.88;30598751;28;98069;-75
2023/08/26 22:58:48;;;;;;;7.20;4.23;;;;;;;22.09;69.21;99661.88;30598587;28;97503;-80
2023/08/26 23:13:48;;;;;;;;;;;;;;;22.10;70.03;99685.22;30596782;28;106925;-76
2023/08/26 23:28:49;;;;;;;8.20;4.50;;;;;;;21.87;70.04;99708.06;30596057;28;96705;-79
2023/08/26 23:43:50;;;;;;;9.73;6.00;;;;;;;21.45;71.04;99706.81;30594073;28;96784;-78
2023/08/26 23:58:50;;;;;;;8.02;5.80;;;;;;;21.24;72.50;99728.25;30591910;28;112682;-75
